Time;durP1;ratioP1;P1;durP2;ratioP2;P2;SDS_P1;SDS_P2;PMS_P1;PMS_P2;Temp;Humidity;BMP_temperature;BMP_pressure;BME280_temperature;BME280_humidity;BME280_pressure;Samples;Min_cycle;Max_cycle;Signal;HPM_P1;HPM_P2
2021/10/27 00:01:27;;;;;;;;;64.50;49.00;;;;;1.00;100.00;100559.63;6312082;20;2500340;-44
2021/10/27 00:03:57;;;;;;;;;65.00;48.00;;;;;1.12;100.00;100560.38;6283478;20;2886764;-45
2021/10/27 00:06:27;;;;;;;;;80.00;57.33;;;;;1.09;100.00;100566.59;6316647;20;2873247;-45
2021/10/27 00:08:56;;;;;;;;;70.00;56.50;;;;;1.28;100.00;100567.28;6310767;20;2871193;-45
2021/10/27 00:11:26;;;;;;;;;76.67;58.00;;;;;1.16;100.00;100564.75;6284960;20;2875510;-47
2021/10/27 00:13:55;;;;;;;;;76.00;59.50;;;;;1.51;100.00;100569.72;6315570;20;2869065;-45
2021/10/27 00:16:24;;;;;;;;;77.67;57.67;;;;;1.40;99.48;100567.19;6285434;20;2892027;-44
2021/10/27 00:18:54;;;;;;;;;72.67;55.33;;;;;1.39;99.24;100575.13;6313409;20;2883739;-45
2021/10/27 00:21:22;;;;;;;;;73.00;57.00;;;;;1.43;98.94;100571.56;6309707;20;2500269;-47
2021/10/27 00:23:51;;;;;;;;;68.50;53.00;;;;;1.33;98.62;100576.06;6283183;20;2878386;-46
2021/10/27 00:26:20;;;;;;;;;76.33;54.33;;;;;1.31;98.71;100575.19;6284106;20;2882653;-44
2021/10/27 00:28:49;;;;;;;;;71.50;55.00;;;;;1.19;98.71;100576.19;6312892;20;2866909;-45
2021/10/27 00:31:21;;;;;;;;;76.00;53.67;;;;;1.05;99.63;100576.31;6284630;20;2895231;-46
2021/10/27 00:33:51;;;;;;;;;74.33;56.00;;;;;1.09;99.47;100570.09;6315447;20;2879545;-44
2021/10/27 00:36:19;;;;;;;;;72.50;59.00;;;;;1.18;98.92;100570.91;6315617;20;2866902;-46
2021/10/27 00:38:49;;;;;;;;;71.67;53.00;;;;;0.93;99.23;100576.41;6280968;20;2886164;-48
2021/10/27 00:41:19;;;;;;;;;73.67;53.33;;;;;0.94;99.66;100569.34;6314600;20;3640845;-44
2021/10/27 00:43:48;;;;;;;;;70.50;53.00;;;;;0.78;100.00;100565.94;6314229;20;2869005;-45
2021/10/27 00:46:26;;;;;;;;;80.00;56.00;;;;;1.01;100.00;100558.72;6282276;20;3647127;-45
2021/10/27 00:48:56;;;;;;;;;61.50;47.75;;;;;1.01;100.00;100558.72;6313139;20;3615231;-46
2021/10/27 00:51:23;;;;;;;;;66.00;47.00;;;;;0.93;100.00;100549.97;6309166;20;2500308;-45
2021/10/27 00:53:52;;;;;;;;;61.00;45.50;;;;;0.77;100.00;100556.28;6281107;20;2868033;-44
2021/10/27 00:56:21;;;;;;;;;65.50;54.50;;;;;0.54;100.00;100549.38;6281554;20;2855553;-45
2021/10/27 00:58:49;;;;;;;;;68.00;51.00;;;;;0.38;100.00;100560.94;6275470;20;2500242;-46
2021/10/27 01:01:19;;;;;;;;;73.67;55.00;;;;;0.35;100.00;100566.25;6278893;20;2881480;-45
2021/10/27 01:03:48;;;;;;;;;76.50;58.50;;;;;0.27;100.00;100560.13;6314517;20;2869514;-44
2021/10/27 01:06:17;;;;;;;;;75.50;59.00;;;;;0.09;100.00;100553.19;6282354;20;2869002;-46
2021/10/27 01:08:46;;;;;;;;;83.67;59.33;;;;;0.16;100.00;100555.78;6280841;20;3646125;-45
2021/10/27 01:11:16;;;;;;;;;85.67;59.67;;;;;0.55;100.00;100558.19;6315293;20;3645045;-45
2021/10/27 01:13:47;;;;;;;;;85.00;61.33;;;;;-0.02;100.00;100550.59;6316862;20;3658593;-45
2021/10/27 01:16:17;;;;;;;;;73.67;59.67;;;;;0.01;100.00;100549.69;6319801;20;2884774;-45
2021/10/27 01:18:45;;;;;;;;;68.50;54.50;;;;;0.15;100.00;100543.44;6319435;20;2870697;-46
2021/10/27 01:21:13;;;;;;;;;73.00;55.00;;;;;0.49;100.00;100543.25;6285581;20;2500332;-46
2021/10/27 01:23:41;;;;;;;;;73.00;57.00;;;;;0.28;100.00;100549.53;6281926;20;2500264;-47
2021/10/27 01:26:12;;;;;;;;;77.67;56.67;;;;;0.12;100.00;100538.19;6287877;20;2892113;-44
2021/10/27 01:28:44;;;;;;;;;69.00;54.00;;;;;0.49;100.00;100537.97;6317770;20;2861695;-45
2021/10/27 01:31:15;;;;;;;;;67.33;50.67;;;;;0.60;100.00;100536.09;6287761;20;2877441;-45
2021/10/27 01:33:44;;;;;;;;;69.00;56.00;;;;;0.31;99.85;100527.50;6315928;20;2500250;-44
2021/10/27 01:36:20;;;;;;;;;75.00;56.67;;;;;0.03;100.00;100532.97;6287718;20;2888822;-44
2021/10/27 01:38:49;;;;;;;;;72.50;55.50;;;;;-0.24;100.00;100526.94;6316967;20;2877344;-44
2021/10/27 01:41:18;;;;;;;;;71.50;53.50;;;;;-0.05;100.00;100518.94;6287481;20;2870440;-45
2021/10/27 01:43:57;;;;;;;;;72.50;51.00;;;;;0.13;100.00;100524.13;6282353;20;2500303;-45
2021/10/27 01:46:31;;;;;;;;;73.50;55.50;;;;;0.21;100.00;100532.88;6285982;20;2876430;-45
2021/10/27 01:49:03;;;;;;;;;66.00;54.00;;;;;-0.09;100.00;100533.88;6286469;20;2863934;-44
2021/10/27 01:51:36;;;;;;;;;81.00;60.00;;;;;-0.53;100.00;100536.69;6287810;20;2901438;-44
2021/10/27 01:54:06;;;;;;;;;62.50;48.00;;;;;-0.78;100.00;100542.00;6319079;20;2877360;-45
2021/10/27 01:56:35;;;;;;;;;73.50;58.50;;;;;-0.88;100.00;100540.28;6287323;20;2870063;-45
2021/10/27 01:59:04;;;;;;;;;70.50;52.00;;;;;-0.36;100.00;100542.78;6285679;20;2875419;-45
2021/10/27 02:01:33;;;;;;;;;71.67;57.00;;;;;-0.58;100.00;100544.63;6287676;20;3608691;-46
2021/10/27 02:04:02;;;;;;;;;76.00;56.50;;;;;-0.44;100.00;100549.84;6285060;20;2883613;-44
2021/10/27 02:06:32;;;;;;;;;83.00;63.00;;;;;0.03;100.00;100547.91;6286065;20;2882625;-44
2021/10/27 02:09:02;;;;;;;;;83.00;64.33;;;;;-0.02;97.96;100556.75;6316186;20;2881594;-45
2021/10/27 02:11:32;;;;;;;;;82.33;58.67;;;;;-0.49;98.84;100554.28;6315715;20;3655559;-44
2021/10/27 02:14:02;;;;;;;;;84.67;62.67;;;;;-0.42;100.00;100553.38;6316813;20;3647577;-44
2021/10/27 02:16:32;;;;;;;;;87.00;65.00;;;;;-0.47;100.00;100539.31;6317565;20;2892944;-45
2021/10/27 02:19:06;;;;;;;;;82.00;60.50;;;;;-0.47;100.00;100537.56;6316216;20;2894088;-46
2021/10/27 02:21:36;;;;;;;;;76.50;60.50;;;;;-0.05;100.00;100538.28;6313988;20;2859769;-45
2021/10/27 02:24:05;;;;;;;;;79.50;60.50;;;;;0.21;100.00;100542.53;6283902;20;2889829;-46
2021/10/27 02:26:34;;;;;;;;;83.00;64.00;;;;;0.27;100.00;100554.84;6287133;20;2867950;-46
2021/10/27 02:29:04;;;;;;;;;91.00;66.00;;;;;-0.24;100.00;100550.69;6284516;20;3653327;-47
2021/10/27 02:31:34;;;;;;;;;87.67;63.00;;;;;0.08;100.00;100562.88;6318390;20;3642036;-45
2021/10/27 02:34:03;;;;;;;;;80.33;62.00;;;;;-0.06;99.96;100567.31;6316571;20;3637702;-44
2021/10/27 02:36:32;;;;;;;;;62.50;53.50;;;;;-0.34;100.00;100570.06;6312787;20;2498692;-45
2021/10/27 02:39:00;;;;;;;;;68.00;56.00;;;;;-0.54;100.00;100561.31;6280798;20;2500350;-45
2021/10/27 02:41:28;;;;;;;;;68.00;53.00;;;;;-0.63;100.00;100563.94;6282606;20;2500420;-46
2021/10/27 02:43:55;;;;;;;;;69.00;54.00;;;;;-0.28;100.00;100556.84;6280245;20;2500722;-46
2021/10/27 02:46:24;;;;;;;;;77.50;61.50;;;;;0.11;100.00;100562.84;6284374;20;2881508;-44
2021/10/27 02:48:54;;;;;;;;;79.00;59.67;;;;;0.11;100.00;100569.91;6283527;20;2884698;-45
2021/10/27 02:51:24;;;;;;;;;85.67;62.67;;;;;0.08;100.00;100568.16;6314375;20;3659576;-46
2021/10/27 02:53:53;;;;;;;;;94.67;64.67;;;;;0.09;100.00;100569.88;6317371;20;3648147;-44
2021/10/27 02:56:23;;;;;;;;;73.67;57.00;;;;;-0.13;100.00;100568.22;6317936;20;3623184;-45
2021/10/27 02:58:52;;;;;;;;;73.50;58.00;;;;;-0.17;100.00;100569.13;6316265;20;2876275;-46
2021/10/27 03:01:21;;;;;;;;;82.67;63.00;;;;;-0.35;100.00;100575.31;6285468;20;2889893;-46
2021/10/27 03:03:52;;;;;;;;;75.00;60.00;;;;;-0.43;100.00;100564.78;6316465;20;2876312;-45
2021/10/27 03:06:22;;;;;;;;;74.00;60.00;;;;;-0.74;100.00;100570.16;6286140;20;2867375;-44
2021/10/27 03:08:51;;;;;;;;;77.33;59.33;;;;;-0.52;100.00;100570.09;6285116;20;2893061;-44
2021/10/27 03:11:20;;;;;;;;;75.00;58.50;;;;;-0.60;100.00;100577.16;6317054;20;2879618;-46
2021/10/27 03:13:48;;;;;;;;;85.50;66.00;;;;;-0.74;100.00;100575.41;6281561;20;2500270;-46
2021/10/27 03:16:18;;;;;;;;;82.00;61.33;;;;;-0.68;100.00;100570.13;6284632;20;2885699;-46
2021/10/27 03:18:47;;;;;;;;;84.67;63.00;;;;;-0.77;100.00;100564.84;6316139;20;3646067;-45
2021/10/27 03:21:15;;;;;;;;;74.00;57.50;;;;;-0.32;100.00;100567.41;6310271;20;2500301;-44
2021/10/27 03:23:44;;;;;;;;;79.00;57.50;;;;;-0.26;100.00;100565.63;6283785;20;2875242;-44
2021/10/27 03:26:13;;;;;;;;;72.50;56.00;;;;;-0.30;100.00;100577.06;6285904;20;2870061;-47
2021/10/27 03:28:43;;;;;;;;;73.33;55.67;;;;;-0.58;100.00;100580.66;6284958;20;2887762;-45
2021/10/27 03:31:12;;;;;;;;;77.50;59.50;;;;;-0.65;100.00;100578.94;6317673;20;2881478;-45
2021/10/27 03:33:41;;;;;;;;;82.33;61.33;;;;;-0.78;100.00;100586.84;6283557;20;3646055;-44
2021/10/27 03:36:12;;;;;;;;;120.00;91.00;;;;;-0.85;100.00;100582.44;6315894;20;3699329;-44
2021/10/27 03:38:42;;;;;;;;;99.00;74.00;;;;;-0.75;100.00;100589.47;6278093;20;3665822;-44
2021/10/27 03:41:13;;;;;;;;;105.67;78.67;;;;;-0.53;100.00;100592.06;6315600;20;3682652;-46
2021/10/27 03:43:43;;;;;;;;;106.00;75.00;;;;;-0.33;100.00;100597.31;6281134;20;3689821;-44
2021/10/27 03:46:13;;;;;;;;;87.67;71.33;;;;;-0.41;100.00;100596.47;6284137;20;2874241;-44
2021/10/27 03:48:43;;;;;;;;;116.67;81.67;;;;;-0.98;100.00;100601.78;6315019;20;3705437;-46
2021/10/27 03:51:13;;;;;;;;;104.00;74.67;;;;;-0.92;100.00;100607.94;6282491;20;3681463;-44
2021/10/27 03:53:43;;;;;;;;;98.00;68.50;;;;;-1.16;100.00;100608.81;6284333;20;3530529;-45
2021/10/27 03:56:12;;;;;;;;;94.67;64.67;;;;;-0.99;100.00;100607.94;6313845;20;3655431;-45
2021/10/27 03:58:42;;;;;;;;;93.00;68.00;;;;;-0.93;100.00;100600.03;6314810;20;3659671;-44
2021/10/27 04:01:13;;;;;;;;;87.67;67.67;;;;;-0.56;100.00;100600.84;6314443;20;3643965;-47
2021/10/27 04:03:43;;;;;;;;;93.67;71.00;;;;;-1.10;100.00;100602.66;6316027;20;3644135;-45
2021/10/27 04:06:13;;;;;;;;;92.33;69.33;;;;;-0.31;100.00;100612.25;6312921;20;3647103;-44
2021/10/27 04:08:43;;;;;;;;;81.00;60.00;;;;;-0.73;100.00;100614.09;6314136;20;3649160;-46
2021/10/27 04:11:13;;;;;;;;;102.00;74.67;;;;;-1.13;100.00;100605.31;6315264;20;3680446;-44
2021/10/27 04:13:42;;;;;;;;;89.00;63.00;;;;;-1.12;100.00;100610.56;6282336;20;3660632;-47
2021/10/27 04:16:11;;;;;;;;;71.50;54.00;;;;;-0.46;100.00;100609.66;6312382;20;2875263;-44
2021/10/27 04:18:41;;;;;;;;;84.00;58.00;;;;;-0.55;100.00;100607.91;6282807;20;3654471;-46
2021/10/27 04:21:11;;;;;;;;;81.33;62.00;;;;;-0.74;100.00;100606.16;6315893;20;3646046;-50
2021/10/27 04:23:41;;;;;;;;;81.33;61.00;;;;;-0.31;100.00;100622.81;6315549;20;3651274;-48
2021/10/27 04:26:11;;;;;;;;;93.67;65.33;;;;;-0.74;100.00;100632.53;6314704;20;3665852;-44
2021/10/27 04:28:40;;;;;;;;;78.00;61.00;;;;;-1.00;100.00;100628.16;6312856;20;2881515;-44
2021/10/27 04:31:10;;;;;;;;;83.67;64.00;;;;;-0.48;100.00;100629.88;6285079;20;2877436;-45
2021/10/27 04:33:39;;;;;;;;;75.50;58.00;;;;;-0.66;100.00;100625.47;6315493;20;2872118;-45
2021/10/27 04:36:07;;;;;;;;;79.00;60.50;;;;;-0.27;100.00;100629.81;6275754;20;2500331;-44
2021/10/27 04:38:36;;;;;;;;;64.00;49.50;;;;;-0.43;100.00;100630.75;6278135;20;2500279;-45
2021/10/27 04:41:06;;;;;;;;;83.33;61.67;;;;;-0.52;100.00;100628.13;6284275;20;3653335;-46
2021/10/27 04:43:35;;;;;;;;;80.00;62.00;;;;;-0.30;100.00;100627.19;6314797;20;2884648;-45
2021/10/27 04:46:04;;;;;;;;;78.50;58.50;;;;;-0.33;100.00;100634.25;6287653;20;2876267;-45
2021/10/27 04:48:34;;;;;;;;;80.33;59.67;;;;;-0.59;100.00;100629.88;6288300;20;2895110;-44
2021/10/27 04:51:02;;;;;;;;;78.50;59.00;;;;;-0.64;100.00;100638.69;6319414;20;2880473;-44
2021/10/27 04:53:32;;;;;;;;;85.67;63.67;;;;;-0.57;100.00;100640.44;6288806;20;3652304;-45
2021/10/27 04:56:01;;;;;;;;;81.00;63.00;;;;;-0.62;100.00;100632.53;6319773;20;2876269;-44
2021/10/27 04:58:31;;;;;;;;;84.67;65.67;;;;;-0.78;100.00;100641.34;6285254;20;3640852;-45
2021/10/27 05:01:00;;;;;;;;;87.33;64.00;;;;;-0.75;100.00;100642.19;6316365;20;3660615;-45
2021/10/27 05:03:30;;;;;;;;;78.33;60.67;;;;;-0.92;100.00;100636.94;6320524;20;2888904;-44
2021/10/27 05:06:01;;;;;;;;;83.67;60.67;;;;;-1.22;100.00;100629.84;6319102;20;2891983;-45
2021/10/27 05:08:33;;;;;;;;;87.00;63.33;;;;;-1.45;100.00;100634.19;6319348;20;2897193;-44
2021/10/27 05:11:03;;;;;;;;;87.67;64.00;;;;;-1.35;100.00;100628.94;6319913;20;3652297;-45
2021/10/27 05:13:33;;;;;;;;;87.33;62.00;;;;;-1.18;100.00;100636.91;6319860;20;3685656;-46
2021/10/27 05:16:02;;;;;;;;;84.67;62.67;;;;;-1.20;100.00;100635.16;6319360;20;2890971;-47
2021/10/27 05:18:32;;;;;;;;;84.33;60.67;;;;;-1.25;100.00;100634.25;6319551;20;3654378;-45
2021/10/27 05:21:01;;;;;;;;;80.00;61.50;;;;;-1.28;100.00;100635.13;6318935;20;2872138;-46
2021/10/27 05:23:31;;;;;;;;;83.00;62.00;;;;;-1.12;100.00;100642.19;6284622;20;2875451;-46
2021/10/27 05:25:59;;;;;;;;;76.00;56.00;;;;;-1.08;100.00;100635.13;6311969;20;2500698;-36
2021/10/27 05:28:28;;;;;;;;;82.67;62.33;;;;;-1.14;100.00;100643.03;6288387;20;2874271;-37
2021/10/27 05:30:58;;;;;;;;;87.00;64.00;;;;;-1.03;100.00;100650.97;6319146;20;3650385;-37
2021/10/27 05:33:27;;;;;;;;;88.50;64.00;;;;;-0.89;100.00;100657.16;6319041;20;2709670;-36
2021/10/27 05:35:54;;;;;;;;;70.50;59.50;;;;;-0.91;100.00;100666.81;6314930;20;2500325;-37
2021/10/27 05:38:25;;;;;;;;;84.00;61.67;;;;;-0.99;100.00;100661.53;6286181;20;3656509;-37
2021/10/27 05:40:55;;;;;;;;;79.67;62.33;;;;;-1.11;100.00;100670.31;6318935;20;2887990;-37
2021/10/27 05:43:25;;;;;;;;;82.67;61.67;;;;;-1.04;100.00;100675.56;6317892;20;2898152;-36
2021/10/27 05:45:57;;;;;;;;;86.00;59.33;;;;;-0.68;100.00;100682.66;6313299;20;3658624;-36
2021/10/27 05:48:30;;;;;;;;;70.00;58.00;;;;;-0.72;100.00;100694.94;6315414;20;2873270;-36
2021/10/27 05:56:24;;;;;;;;;108.67;77.67;;;;;-0.88;99.76;100698.44;6285139;20;3688875;-37
2021/10/27 05:58:53;;;;;;;;;78.00;55.33;;;;;-0.38;99.65;100700.22;6281728;20;3636798;-36
2021/10/27 06:01:23;;;;;;;;;97.67;69.00;;;;;-0.23;98.06;100704.59;6318043;20;3666927;-37
2021/10/27 06:03:53;;;;;;;;;99.33;71.33;;;;;-0.54;98.68;100717.81;6319777;20;3665996;-36
2021/10/27 06:06:22;;;;;;;;;98.33;67.67;;;;;-0.50;99.41;100719.56;6315990;20;3657904;-36
2021/10/27 06:08:55;;;;;;;;;95.33;71.00;;;;;-0.54;99.68;100719.56;6317074;20;3637801;-37
2021/10/27 06:11:24;;;;;;;;;97.00;69.67;;;;;-0.19;100.00;100723.94;6316020;20;3646102;-37
2021/10/27 06:13:55;;;;;;;;;92.67;69.00;;;;;-0.01;99.90;100727.44;6319920;20;3661857;-37
2021/10/27 06:16:24;;;;;;;;;84.33;66.33;;;;;0.22;99.03;100740.59;6318065;20;3637854;-36
2021/10/27 06:18:54;;;;;;;;;95.00;71.00;;;;;0.06;99.17;100745.91;6317103;20;3655522;-36
2021/10/27 06:21:24;;;;;;;;;102.00;70.67;;;;;0.18;98.07;100738.81;6318051;20;3671189;-37
2021/10/27 06:24:02;;;;;;;;;95.33;71.67;;;;;0.30;98.07;100737.94;6316588;20;3647341;-36
2021/10/27 06:26:32;;;;;;;;;98.67;74.33;;;;;0.76;96.82;100737.75;6314696;20;3657586;-36
2021/10/27 06:29:09;;;;;;;;;107.33;73.67;;;;;0.60;96.48;100749.28;6283123;20;3685657;-37
2021/10/27 06:31:43;;;;;;;;;106.00;77.33;;;;;1.74;93.70;100744.19;6288090;20;3685675;-37
2021/10/27 06:47:35;;;;;;;;;84.33;63.00;;;;;10.14;59.04;100763.88;6318025;20;3639942;-37
2021/10/27 06:50:05;;;;;;;;;77.67;59.33;;;;;10.47;58.11;100776.78;6316725;20;3631454;-37
2021/10/27 06:52:35;;;;;;;;;83.67;61.67;;;;;10.80;57.16;100778.94;6317777;20;3641979;-37
2021/10/27 06:55:06;;;;;;;;;70.00;57.67;;;;;9.78;59.19;100780.53;6318072;20;3615198;-37
2021/10/27 06:57:35;;;;;;;;;77.33;62.67;;;;;9.84;59.55;100785.66;6318259;20;3619210;-37
2021/10/27 07:00:16;;;;;;;;;79.67;61.33;;;;;8.33;63.81;100773.50;6317919;20;3634634;-37
2021/10/27 07:16:25;;;;;;;;;66.00;52.00;;;;;4.49;84.93;100786.41;6317586;20;3623114;-37
2021/10/27 07:18:55;;;;;;;;;64.00;49.50;;;;;4.85;83.57;100791.94;6315028;20;2870198;-37
2021/10/27 07:21:24;;;;;;;;;68.00;51.67;;;;;4.85;84.25;100791.94;6285602;20;2872359;-37
2021/10/27 07:23:54;;;;;;;;;70.00;55.33;;;;;5.11;84.30;100798.47;6315721;20;3622092;-37
2021/10/27 07:26:26;;;;;;;;;75.33;56.67;;;;;5.30;83.74;100809.63;6315069;20;3640841;-37
2021/10/27 07:28:56;;;;;;;;;75.33;58.00;;;;;5.43;84.32;100798.66;6314322;20;3637716;-37
2021/10/27 07:31:27;;;;;;;;;78.33;58.67;;;;;5.58;84.72;100804.53;6317188;20;3637746;-37
2021/10/27 07:34:11;;;;;;;;;71.00;57.00;;;;;5.81;83.98;100796.00;6317070;20;2574208;-37
2021/10/27 07:42:18;;;;;;;;;80.00;58.33;;;;;6.55;82.41;100795.91;6316748;20;3670109;-37
2021/10/27 07:44:47;;;;;;;;;84.00;62.67;;;;;6.42;82.92;100798.94;6283347;20;3640872;-38
2021/10/27 07:47:19;;;;;;;;;82.00;63.33;;;;;6.25;84.64;100792.28;6312396;20;3658533;-37
2021/10/27 07:49:48;;;;;;;;;79.33;59.00;;;;;6.76;82.23;100791.75;6283125;20;3643138;-37
2021/10/27 07:52:18;;;;;;;;;74.00;59.33;;;;;6.95;82.37;100797.47;6313973;20;3614870;-37
2021/10/27 07:54:48;;;;;;;;;80.33;61.33;;;;;7.26;80.97;100800.09;6314296;20;3643962;-38
2021/10/27 07:57:18;;;;;;;;;78.00;61.33;;;;;7.32;80.72;100803.50;6311496;20;3630476;-37
2021/10/27 07:59:47;;;;;;;;;79.33;61.00;;;;;7.44;80.97;100811.16;6315817;20;3618986;-37
2021/10/27 08:02:17;;;;;;;;;79.00;60.00;;;;;7.47;81.16;100803.91;6315226;20;3632512;-37
2021/10/27 08:04:47;;;;;;;;;77.67;60.00;;;;;7.51;81.94;100804.72;6317303;20;3630441;-37
2021/10/27 08:07:17;;;;;;;;;70.67;57.67;;;;;7.50;81.46;100799.41;6314806;20;3620025;-37
2021/10/27 08:09:47;;;;;;;;;76.25;58.75;;;;;8.07;79.78;100814.50;6319280;20;3642933;-37
2021/10/27 08:12:16;;;;;;;;;78.33;59.00;;;;;8.20;78.63;100809.63;6316733;20;3648117;-37
2021/10/27 08:14:46;;;;;;;;;83.33;61.00;;;;;8.16;79.79;100818.66;6282344;20;3647265;-37
2021/10/27 08:17:23;;;;;;;;;80.00;62.67;;;;;8.13;79.39;100815.16;6314215;20;3634602;-36
2021/10/27 08:19:52;;;;;;;;;74.33;59.67;;;;;8.17;79.86;100810.59;6318238;20;3614827;-37
2021/10/27 08:22:22;;;;;;;;;75.67;56.67;;;;;8.55;78.10;100821.81;6321115;20;3637781;-36
2021/10/27 08:24:53;;;;;;;;;71.67;54.33;;;;;8.69;77.71;100821.31;6317268;20;3631623;-36
2021/10/27 08:27:35;;;;;;;;;72.33;53.00;;;;;8.74;77.68;100824.72;6317904;20;3648176;-37
2021/10/27 08:30:07;;;;;;;;;77.00;60.33;;;;;9.01;75.89;100833.56;6288179;20;3626263;-37
2021/10/27 08:32:54;;;;;;;;;70.00;54.00;;;;;9.32;74.92;100829.72;6320203;20;3630525;-37
2021/10/27 08:35:29;;;;;;;;;72.00;54.00;;;;;9.25;73.87;100833.59;6319695;20;3631607;-36
2021/10/27 08:37:58;;;;;;;;;72.00;55.33;;;;;9.52;74.09;100837.88;6323326;20;3629520;-36
2021/10/27 08:40:27;;;;;;;;;76.00;61.00;;;;;9.41;72.87;100835.63;6289772;20;3622105;-37
2021/10/27 08:42:59;;;;;;;;;66.33;53.00;;;;;9.91;71.47;100833.72;6289488;20;3626443;-36
2021/10/27 08:45:29;;;;;;;;;55.33;44.00;;;;;9.72;71.48;100834.44;6320417;20;2865970;-36
2021/10/27 08:48:00;;;;;;;;;57.67;46.67;;;;;9.84;71.24;100833.94;6318748;20;2896215;-37
2021/10/27 08:50:29;;;;;;;;;57.67;44.67;;;;;10.11;70.10;100825.72;6318289;20;2859737;-37
2021/10/27 08:52:59;;;;;;;;;61.33;48.67;;;;;9.96;70.24;100826.34;6316926;20;2863986;-37
2021/10/27 08:55:31;;;;;;;;;62.33;50.00;;;;;10.26;69.04;100824.19;6320794;20;3612723;-36
2021/10/27 08:58:02;;;;;;;;;71.00;54.67;;;;;10.50;69.53;100817.78;6317858;20;3636842;-37
2021/10/27 09:03:46;;;;;;;;;60.00;50.00;;;;;11.08;67.14;100813.47;6317160;20;3601305;-37
2021/10/27 09:06:25;;;;;;;;;60.00;48.00;;;;;11.18;66.28;100815.66;6288278;20;3603323;-37
2021/10/27 10:05:28;;;;;;;;;46.00;35.67;;;;;12.68;58.85;100809.28;6321739;20;3630427;-37
2021/10/27 10:07:56;;;;;;;;;46.33;36.33;;;;;12.84;56.99;100807.50;6290645;20;3602312;-37
2021/10/27 10:10:25;;;;;;;;;41.67;35.67;;;;;13.28;57.54;100806.13;6285739;20;3617270;-37
2021/10/27 10:12:55;;;;;;;;;44.33;36.00;;;;;13.71;56.43;100814.50;6288240;20;3624202;-37
2021/10/27 10:15:28;;;;;;;;;40.33;35.33;;;;;13.50;55.66;100808.50;6321609;20;3611700;-37
2021/10/27 10:17:58;;;;;;;;;43.00;36.33;;;;;13.43;56.03;100812.47;6289811;20;3591994;-36
2021/10/27 10:20:28;;;;;;;;;43.33;34.00;;;;;13.43;55.52;100815.16;6286902;20;3621073;-37
2021/10/27 10:23:24;;;;;;;;;42.67;33.67;;;;;13.52;56.29;100820.94;6317433;20;3625212;-37
2021/10/27 10:26:06;;;;;;;;;40.33;34.33;;;;;13.96;55.74;100825.66;6290501;20;3598167;-37
2021/10/27 10:28:42;;;;;;;;;35.67;33.00;;;;;13.71;55.62;100823.47;6288117;20;3608558;-37
2021/10/27 10:31:32;;;;;;;;;43.00;36.67;;;;;13.37;55.55;100821.78;6287614;20;3614780;-37
2021/10/27 10:34:08;;;;;;;;;38.33;35.00;;;;;12.98;55.56;100814.88;6318794;20;3599298;-37
2021/10/27 10:36:42;;;;;;;;;39.00;34.00;;;;;13.20;56.25;100814.59;6289290;20;3605439;-37
2021/10/27 10:39:50;;;;;;;;;41.00;34.33;;;;;13.15;56.19;100811.28;6289766;20;3603376;-37
2021/10/27 10:42:55;;;;;;;;;35.33;30.00;;;;;13.39;54.54;100804.56;6290905;20;3591909;-38
2021/10/27 10:56:56;;;;;;;;;38.67;32.00;;;;;13.71;53.86;100801.88;6319339;20;3610238;-37
2021/10/27 10:59:56;;;;;;;;;31.67;31.33;;;;;13.62;54.01;100794.31;6285190;20;3578393;-37
2021/10/27 11:40:39;;;;;;;;;28.33;27.67;;;;;13.87;52.67;100745.19;6284945;20;3598123;-38
2021/10/27 11:49:15;;;;;;;;;30.00;27.67;;;;;14.27;51.44;100738.31;6282880;20;3600361;-38
2021/10/27 11:51:23;;;;;;;;;33.00;29.33;;;;;14.27;51.65;100730.19;6314282;20;3607613;-37
2021/10/27 11:53:52;;;;;;;;;35.00;32.00;;;;;14.15;52.50;100738.16;6285789;20;3580447;-38
2021/10/27 11:56:23;;;;;;;;;34.33;32.00;;;;;14.04;52.06;100728.88;6283162;20;3595047;-37
2021/10/27 11:58:55;;;;;;;;;39.33;30.33;;;;;14.27;52.02;100732.91;6283883;20;3588795;-37
2021/10/27 12:01:36;;;;;;;;;36.00;28.75;;;;;14.14;52.15;100731.00;6318737;20;3622613;-37
2021/10/27 12:04:16;;;;;;;;;35.00;31.67;;;;;13.66;52.84;100724.84;6316782;20;3602309;-37
2021/10/27 12:06:57;;;;;;;;;27.00;23.67;;;;;13.88;52.25;100719.06;6285945;20;2836805;-37
2021/10/27 12:20:02;;;;;;;;;34.67;31.00;;;;;14.23;52.14;100714.25;6285929;20;3608577;-36
2021/10/27 12:22:32;;;;;;;;;39.00;34.67;;;;;14.10;51.70;100708.72;6285272;20;3609638;-36
2021/10/27 12:25:06;;;;;;;;;35.67;29.67;;;;;14.11;51.96;100705.06;6283676;20;3591929;-38
2021/10/27 12:27:43;;;;;;;;;29.67;26.33;;;;;14.13;51.49;100703.13;6286627;20;3610699;-37
2021/10/27 12:30:17;;;;;;;;;28.67;27.00;;;;;14.31;51.21;100713.81;6286042;20;3592959;-37
2021/10/27 12:32:54;;;;;;;;;51.67;40.00;;;;;14.57;52.60;100715.81;6284812;20;2874291;-37
2021/10/27 12:35:27;;;;;;;;;29.33;27.33;;;;;14.35;51.85;100712.63;6317293;20;3600430;-37
2021/10/27 12:38:16;;;;;;;;;39.33;31.67;;;;;14.57;51.86;100707.69;6284692;20;3609586;-37
2021/10/27 12:40:47;;;;;;;;;29.00;26.33;;;;;14.16;51.19;100708.34;6285453;20;3600218;-37
2021/10/27 12:43:19;;;;;;;;;28.33;26.33;;;;;14.33;51.84;100706.47;6283875;20;3598125;-37
2021/10/27 12:45:55;;;;;;;;;29.00;25.33;;;;;14.21;52.33;100700.84;6284642;20;3592943;-37
2021/10/27 12:48:38;;;;;;;;;35.00;28.67;;;;;14.33;51.13;100688.44;6317223;20;3609786;-37
2021/10/27 12:51:09;;;;;;;;;32.50;27.50;;;;;14.45;51.38;100697.59;6283544;20;3617025;-37
2021/10/27 12:53:39;;;;;;;;;30.00;29.33;;;;;14.14;51.15;100704.00;6315915;20;3576254;-37
2021/10/27 12:56:16;;;;;;;;;38.00;33.67;;;;;14.31;51.25;100694.88;6286094;20;3601241;-37
2021/10/27 12:58:53;;;;;;;;;59.67;44.67;;;;;14.15;51.13;100701.22;6282994;20;3639870;-37
2021/10/27 13:09:28;;;;;;;;;33.00;31.00;;;;;14.41;51.80;100690.66;6288494;20;3595069;-38
2021/10/27 13:19:52;;;;;;;;;30.00;27.00;;;;;14.42;51.65;100697.81;6322696;20;3596052;-38
2021/10/27 13:30:34;;;;;;;;;31.67;29.33;;;;;14.64;51.57;100698.25;6287335;20;2848167;-39
2021/10/27 13:33:08;;;;;;;;;39.00;32.00;;;;;14.13;51.80;100695.03;6323179;20;3601286;-38
2021/10/27 13:35:36;;;;;;;;;36.00;32.00;;;;;14.38;51.23;100693.56;6291001;20;3570011;-38
2021/10/27 13:38:08;;;;;;;;;35.67;33.00;;;;;14.21;51.98;100695.44;6288378;20;3596115;-38
2021/10/27 13:40:42;;;;;;;;;33.67;30.33;;;;;14.28;51.60;100690.53;6292731;20;3586700;-38
2021/10/27 13:43:26;;;;;;;;;38.33;34.67;;;;;14.12;52.00;100679.81;6289333;20;3594072;-37
2021/10/27 14:08:03;;;;;;;;;36.00;31.00;;;;;14.06;52.83;100685.59;6287904;20;3584632;-38
2021/10/27 15:22:53;;;;;;;;;63.00;48.67;;;;;10.48;70.67;100669.34;6319673;20;3621083;-37
2021/10/27 15:31:23;;;;;;;;;56.33;44.33;;;;;10.03;72.02;100666.84;6308191;20;3607073;-37
2021/10/27 15:53:01;;;;;;;;;124.50;109.00;;;;;8.90;77.42;100675.97;6277495;20;1952482;-37
2021/10/27 15:55:29;;;;;;;;;144.00;123.00;;;;;8.77;77.77;100672.88;6276691;20;1963941;-37
2021/10/27 15:57:57;;;;;;;;;112.00;92.00;;;;;8.54;78.55;100668.38;6279441;20;1951505;-37
2021/10/27 16:00:29;;;;;;;;;143.57;130.43;;;;;8.32;79.75;100670.06;6291945;20;2537818;-37
2021/10/27 16:02:57;;;;;;;;;135.00;113.00;;;;;8.17;80.32;100676.84;6278400;20;1954669;-37
2021/10/27 16:05:27;;;;;;;;;101.67;93.67;;;;;8.09;80.10;100679.78;6282307;20;3671069;-37
2021/10/27 16:07:58;;;;;;;;;130.75;103.25;;;;;7.90;81.00;100673.34;6282648;20;4493978;-37
2021/10/27 16:10:28;;;;;;;;;123.00;101.75;;;;;7.92;81.41;100674.16;6279999;20;4477286;-37
2021/10/27 16:12:58;;;;;;;;;141.33;113.67;;;;;7.79;81.93;100675.50;6314546;20;3729410;-37
2021/10/27 16:15:39;;;;;;;;;190.00;154.50;;;;;7.97;81.82;100680.22;6276669;20;1956826;-37
2021/10/27 16:18:16;;;;;;;;;161.80;133.60;;;;;8.02;82.08;100680.06;6281424;20;4510703;-37